sensor_id;sensor_type;location;lat;lon;timestamp;temperature;humidity
18160;DHT22;9205;52.032;4.314;2023-04-24T00:02:06;10.00;99.90
18160;DHT22;9205;52.032;4.314;2023-04-24T00:04:36;10.00;99.90
18160;DHT22;9205;52.032;4.314;2023-04-24T00:07:06;9.90;99.90
18160;DHT22;9205;52.032;4.314;2023-04-24T00:09:33;10.00;99.90
18160;DHT22;9205;52.032;4.314;2023-04-24T00:12:00;10.30;99.90
18160;DHT22;9205;52.032;4.314;2023-04-24T00:14:31;10.20;99.90
18160;DHT22;9205;52.032;4.314;2023-04-24T00:16:58;9.90;99.90
18160;DHT22;9205;52.032;4.314;2023-04-24T00:19:25;9.90;99.90
18160;DHT22;9205;52.032;4.314;2023-04-24T00:21:52;10.40;99.90
18160;DHT22;9205;52.032;4.314;2023-04-24T00:24:20;10.40;99.90
18160;DHT22;9205;52.032;4.314;2023-04-24T00:26:47;10.00;99.90
18160;DHT22;9205;52.032;4.314;2023-04-24T00:29:15;9.90;99.90
18160;DHT22;9205;52.032;4.314;2023-04-24T00:31:43;10.40;99.90
18160;DHT22;9205;52.032;4.314;2023-04-24T00:34:10;10.00;99.90
18160;DHT22;9205;52.032;4.314;2023-04-24T00:36:38;9.90;99.90
18160;DHT22;9205;52.032;4.314;2023-04-24T00:39:05;10.10;99.90
18160;DHT22;9205;52.032;4.314;2023-04-24T00:41:34;10.20;99.90
18160;DHT22;9205;52.032;4.314;2023-04-24T00:44:02;9.80;99.90
18160;DHT22;9205;52.032;4.314;2023-04-24T00:46:29;10.20;99.90
18160;DHT22;9205;52.032;4.314;2023-04-24T00:49:00;10.20;99.90
18160;DHT22;9205;52.032;4.314;2023-04-24T00:51:28;10.00;99.90
18160;DHT22;9205;52.032;4.314;2023-04-24T00:53:56;10.20;99.90
18160;DHT22;9205;52.032;4.314;2023-04-24T00:56:23;10.30;99.90
18160;DHT22;9205;52.032;4.314;2023-04-24T00:58:51;9.70;99.90
18160;DHT22;9205;52.032;4.314;2023-04-24T01:01:19;9.70;99.90
18160;DHT22;9205;52.032;4.314;2023-04-24T01:03:49;10.00;99.90
18160;DHT22;9205;52.032;4.314;2023-04-24T01:06:20;10.10;99.90
18160;DHT22;9205;52.032;4.314;2023-04-24T01:08:49;10.20;99.90
18160;DHT22;9205;52.032;4.314;2023-04-24T01:11:16;10.30;99.90
18160;DHT22;9205;52.032;4.314;2023-04-24T01:13:45;10.00;99.90
18160;DHT22;9205;52.032;4.314;2023-04-24T01:16:13;10.30;99.90
18160;DHT22;9205;52.032;4.314;2023-04-24T01:18:40;9.80;99.90
18160;DHT22;9205;52.032;4.314;2023-04-24T01:21:08;10.10;99.90
18160;DHT22;9205;52.032;4.314;2023-04-24T01:23:43;9.80;99.90
18160;DHT22;9205;52.032;4.314;2023-04-24T01:26:11;10.00;99.90
18160;DHT22;9205;52.032;4.314;2023-04-24T01:28:39;10.00;99.90
18160;DHT22;9205;52.032;4.314;2023-04-24T01:31:06;9.90;99.90
18160;DHT22;9205;52.032;4.314;2023-04-24T01:33:34;10.30;99.90
18160;DHT22;9205;52.032;4.314;2023-04-24T01:36:03;9.90;99.90
18160;DHT22;9205;52.032;4.314;2023-04-24T01:38:31;9.70;99.90
18160;DHT22;9205;52.032;4.314;2023-04-24T01:41:00;10.00;99.90
18160;DHT22;9205;52.032;4.314;2023-04-24T01:43:28;9.90;99.90
18160;DHT22;9205;52.032;4.314;2023-04-24T01:45:57;10.00;99.90
18160;DHT22;9205;52.032;4.314;2023-04-24T01:48:24;10.20;99.90
18160;DHT22;9205;52.032;4.314;2023-04-24T01:50:52;10.30;99.90
18160;DHT22;9205;52.032;4.314;2023-04-24T01:53:19;10.30;99.90
18160;DHT22;9205;52.032;4.314;2023-04-24T01:55:46;10.20;99.90
18160;DHT22;9205;52.032;4.314;2023-04-24T01:58:16;10.20;99.90
18160;DHT22;9205;52.032;4.314;2023-04-24T02:00:43;10.20;99.90
18160;DHT22;9205;52.032;4.314;2023-04-24T02:03:10;9.70;99.90
18160;DHT22;9205;52.032;4.314;2023-04-24T02:05:37;10.10;99.90
18160;DHT22;9205;52.032;4.314;2023-04-24T02:08:04;9.80;99.90
18160;DHT22;9205;52.032;4.314;2023-04-24T02:10:32;10.00;99.90
18160;DHT22;9205;52.032;4.314;2023-04-24T02:12:59;10.00;99.90
18160;DHT22;9205;52.032;4.314;2023-04-24T02:15:27;9.70;99.90
18160;DHT22;9205;52.032;4.314;2023-04-24T02:17:55;9.80;99.90
18160;DHT22;9205;52.032;4.314;2023-04-24T02:20:23;10.00;99.90
18160;DHT22;9205;52.032;4.314;2023-04-24T02:22:52;10.10;99.90
18160;DHT22;9205;52.032;4.314;2023-04-24T02:25:19;9.80;99.90
18160;DHT22;9205;52.032;4.314;2023-04-24T02:27:47;9.60;99.90
18160;DHT22;9205;52.032;4.314;2023-04-24T02:30:14;9.90;99.90
18160;DHT22;9205;52.032;4.314;2023-04-24T02:32:43;9.90;99.90
18160;DHT22;9205;52.032;4.314;2023-04-24T02:35:10;9.80;99.90
18160;DHT22;9205;52.032;4.314;2023-04-24T02:37:38;9.90;99.90
18160;DHT22;9205;52.032;4.314;2023-04-24T02:40:06;9.60;99.90
18160;DHT22;9205;52.032;4.314;2023-04-24T02:42:34;9.40;99.90
18160;DHT22;9205;52.032;4.314;2023-04-24T02:45:02;9.80;99.90
18160;DHT22;9205;52.032;4.314;2023-04-24T02:47:29;9.90;99.90
18160;DHT22;9205;52.032;4.314;2023-04-24T02:49:58;9.50;99.90
18160;DHT22;9205;52.032;4.314;2023-04-24T02:52:25;9.30;99.90
18160;DHT22;9205;52.032;4.314;2023-04-24T02:54:54;9.40;99.90
18160;DHT22;9205;52.032;4.314;2023-04-24T02:57:21;9.80;99.90
18160;DHT22;9205;52.032;4.314;2023-04-24T02:59:48;9.50;99.90
18160;DHT22;9205;52.032;4.314;2023-04-24T03:02:16;9.40;99.90
18160;DHT22;9205;52.032;4.314;2023-04-24T03:04:43;9.40;99.90
18160;DHT22;9205;52.032;4.314;2023-04-24T03:07:11;9.50;99.90
18160;DHT22;9205;52.032;4.314;2023-04-24T03:09:39;9.90;99.90
18160;DHT22;9205;52.032;4.314;2023-04-24T03:12:08;9.50;99.90
18160;DHT22;9205;52.032;4.314;2023-04-24T03:14:35;9.80;99.90
18160;DHT22;9205;52.032;4.314;2023-04-24T03:17:02;9.50;99.90
18160;DHT22;9205;52.032;4.314;2023-04-24T03:19:30;9.70;99.90
18160;DHT22;9205;52.032;4.314;2023-04-24T03:22:03;10.00;99.90
18160;DHT22;9205;52.032;4.314;2023-04-24T03:24:32;9.50;99.90
18160;DHT22;9205;52.032;4.314;2023-04-24T03:26:59;9.60;99.90
18160;DHT22;9205;52.032;4.314;2023-04-24T03:29:42;9.80;99.90
18160;DHT22;9205;52.032;4.314;2023-04-24T03:32:10;9.80;99.90
18160;DHT22;9205;52.032;4.314;2023-04-24T03:34:38;9.60;99.90
18160;DHT22;9205;52.032;4.314;2023-04-24T03:37:07;9.90;99.90
18160;DHT22;9205;52.032;4.314;2023-04-24T03:39:38;9.50;99.90
18160;DHT22;9205;52.032;4.314;2023-04-24T03:42:06;9.90;99.90
18160;DHT22;9205;52.032;4.314;2023-04-24T03:44:44;9.90;99.90
18160;DHT22;9205;52.032;4.314;2023-04-24T03:47:12;9.50;99.90
18160;DHT22;9205;52.032;4.314;2023-04-24T03:49:39;9.50;99.90
18160;DHT22;9205;52.032;4.314;2023-04-24T03:52:08;9.80;99.90
18160;DHT22;9205;52.032;4.314;2023-04-24T03:54:35;9.50;99.90
18160;DHT22;9205;52.032;4.314;2023-04-24T03:57:04;9.50;99.90
18160;DHT22;9205;52.032;4.314;2023-04-24T03:59:32;9.60;99.90
18160;DHT22;9205;52.032;4.314;2023-04-24T04:02:11;9.70;99.90
18160;DHT22;9205;52.032;4.314;2023-04-24T04:04:38;9.80;99.90
18160;DHT22;9205;52.032;4.314;2023-04-24T04:07:05;9.60;99.90
18160;DHT22;9205;52.032;4.314;2023-04-24T04:09:33;9.90;99.90
18160;DHT22;9205;52.032;4.314;2023-04-24T04:12:00;9.40;99.90
18160;DHT22;9205;52.032;4.314;2023-04-24T04:14:33;9.90;99.90
18160;DHT22;9205;52.032;4.314;2023-04-24T04:17:00;9.90;99.90
18160;DHT22;9205;52.032;4.314;2023-04-24T04:19:27;9.30;99.90
18160;DHT22;9205;52.032;4.314;2023-04-24T04:21:55;9.30;99.90
18160;DHT22;9205;52.032;4.314;2023-04-24T04:24:28;9.70;99.90
18160;DHT22;9205;52.032;4.314;2023-04-24T04:26:57;9.20;99.90
18160;DHT22;9205;52.032;4.314;2023-04-24T04:29:34;9.50;99.90
18160;DHT22;9205;52.032;4.314;2023-04-24T04:32:04;9.30;99.90
18160;DHT22;9205;52.032;4.314;2023-04-24T04:34:31;9.50;99.90
18160;DHT22;9205;52.032;4.314;2023-04-24T04:36:59;9.50;99.90
18160;DHT22;9205;52.032;4.314;2023-04-24T04:39:39;8.90;99.90
18160;DHT22;9205;52.032;4.314;2023-04-24T04:42:10;9.30;99.90
18160;DHT22;9205;52.032;4.314;2023-04-24T04:44:42;9.30;99.90
18160;DHT22;9205;52.032;4.314;2023-04-24T04:47:15;9.30;99.90
18160;DHT22;9205;52.032;4.314;2023-04-24T04:49:43;8.80;99.90
18160;DHT22;9205;52.032;4.314;2023-04-24T04:52:17;9.30;99.90
18160;DHT22;9205;52.032;4.314;2023-04-24T04:54:48;8.90;99.90
18160;DHT22;9205;52.032;4.314;2023-04-24T04:57:15;8.80;99.90
18160;DHT22;9205;52.032;4.314;2023-04-24T04:59:45;9.30;99.90
18160;DHT22;9205;52.032;4.314;2023-04-24T05:02:20;9.30;99.90
18160;DHT22;9205;52.032;4.314;2023-04-24T05:04:47;8.80;99.90
18160;DHT22;9205;52.032;4.314;2023-04-24T05:07:14;9.30;99.90
18160;DHT22;9205;52.032;4.314;2023-04-24T05:09:47;8.80;99.90
18160;DHT22;9205;52.032;4.314;2023-04-24T05:12:14;9.20;99.90
18160;DHT22;9205;52.032;4.314;2023-04-24T05:14:50;8.80;99.90
18160;DHT22;9205;52.032;4.314;2023-04-24T05:17:20;9.10;99.90
18160;DHT22;9205;52.032;4.314;2023-04-24T05:19:47;8.60;99.90
18160;DHT22;9205;52.032;4.314;2023-04-24T05:22:15;8.80;99.90
18160;DHT22;9205;52.032;4.314;2023-04-24T05:24:48;9.00;99.90
18160;DHT22;9205;52.032;4.314;2023-04-24T05:27:33;8.70;99.90
18160;DHT22;9205;52.032;4.314;2023-04-24T05:30:07;8.60;99.90
18160;DHT22;9205;52.032;4.314;2023-04-24T05:32:35;8.70;99.90
18160;DHT22;9205;52.032;4.314;2023-04-24T05:35:02;8.80;99.90
18160;DHT22;9205;52.032;4.314;2023-04-24T05:37:32;8.70;99.90
18160;DHT22;9205;52.032;4.314;2023-04-24T05:39:59;8.70;99.90
18160;DHT22;9205;52.032;4.314;2023-04-24T05:42:27;9.20;99.90
18160;DHT22;9205;52.032;4.314;2023-04-24T05:44:56;8.90;99.90
18160;DHT22;9205;52.032;4.314;2023-04-24T05:47:25;8.70;99.90
18160;DHT22;9205;52.032;4.314;2023-04-24T05:49:53;9.20;99.90
18160;DHT22;9205;52.032;4.314;2023-04-24T05:52:20;8.80;99.90
18160;DHT22;9205;52.032;4.314;2023-04-24T05:54:48;9.10;99.90
18160;DHT22;9205;52.032;4.314;2023-04-24T05:57:20;9.10;99.90
18160;DHT22;9205;52.032;4.314;2023-04-24T05:59:52;9.10;99.90
18160;DHT22;9205;52.032;4.314;2023-04-24T06:02:20;9.00;99.90
18160;DHT22;9205;52.032;4.314;2023-04-24T06:04:49;9.00;99.90
18160;DHT22;9205;52.032;4.314;2023-04-24T06:07:17;8.60;99.90
18160;DHT22;9205;52.032;4.314;2023-04-24T06:09:44;8.70;99.90
18160;DHT22;9205;52.032;4.314;2023-04-24T06:12:12;8.80;99.90
18160;DHT22;9205;52.032;4.314;2023-04-24T06:15:09;8.90;99.90
18160;DHT22;9205;52.032;4.314;2023-04-24T06:18:03;8.80;99.90
18160;DHT22;9205;52.032;4.314;2023-04-24T06:20:32;8.90;99.90
18160;DHT22;9205;52.032;4.314;2023-04-24T06:23:01;8.80;99.90
18160;DHT22;9205;52.032;4.314;2023-04-24T06:25:28;8.60;99.90
18160;DHT22;9205;52.032;4.314;2023-04-24T06:27:56;8.90;99.90
18160;DHT22;9205;52.032;4.314;2023-04-24T06:30:23;8.80;99.90
18160;DHT22;9205;52.032;4.314;2023-04-24T06:32:51;9.00;99.90
18160;DHT22;9205;52.032;4.314;2023-04-24T06:35:18;8.70;99.90
18160;DHT22;9205;52.032;4.314;2023-04-24T06:37:46;9.00;99.90
18160;DHT22;9205;52.032;4.314;2023-04-24T06:40:14;8.80;99.90
18160;DHT22;9205;52.032;4.314;2023-04-24T06:42:41;8.80;99.90
18160;DHT22;9205;52.032;4.314;2023-04-24T06:45:08;9.00;99.90
18160;DHT22;9205;52.032;4.314;2023-04-24T06:47:36;8.70;99.90
18160;DHT22;9205;52.032;4.314;2023-04-24T06:50:04;8.90;99.90
18160;DHT22;9205;52.032;4.314;2023-04-24T06:52:32;8.80;99.90
18160;DHT22;9205;52.032;4.314;2023-04-24T06:55:01;8.70;99.90
18160;DHT22;9205;52.032;4.314;2023-04-24T06:57:29;9.10;99.90
18160;DHT22;9205;52.032;4.314;2023-04-24T06:59:56;9.00;99.90
18160;DHT22;9205;52.032;4.314;2023-04-24T07:02:24;9.00;99.90
18160;DHT22;9205;52.032;4.314;2023-04-24T07:04:51;8.90;99.90
18160;DHT22;9205;52.032;4.314;2023-04-24T07:07:19;9.00;99.90
18160;DHT22;9205;52.032;4.314;2023-04-24T07:09:46;8.80;99.90
18160;DHT22;9205;52.032;4.314;2023-04-24T07:12:15;8.60;99.90
18160;DHT22;9205;52.032;4.314;2023-04-24T07:14:46;8.90;99.90
18160;DHT22;9205;52.032;4.314;2023-04-24T07:17:13;8.80;99.90
18160;DHT22;9205;52.032;4.314;2023-04-24T07:19:41;8.80;99.90
18160;DHT22;9205;52.032;4.314;2023-04-24T07:22:09;8.90;99.90
18160;DHT22;9205;52.032;4.314;2023-04-24T07:24:37;9.00;99.90
18160;DHT22;9205;52.032;4.314;2023-04-24T07:27:04;8.90;99.90
18160;DHT22;9205;52.032;4.314;2023-04-24T07:29:33;8.90;99.90
18160;DHT22;9205;52.032;4.314;2023-04-24T07:32:01;8.70;99.90
18160;DHT22;9205;52.032;4.314;2023-04-24T07:34:28;8.80;99.90
18160;DHT22;9205;52.032;4.314;2023-04-24T07:36:55;9.00;99.90
18160;DHT22;9205;52.032;4.314;2023-04-24T07:39:23;8.90;99.90
18160;DHT22;9205;52.032;4.314;2023-04-24T07:41:51;8.90;99.90
18160;DHT22;9205;52.032;4.314;2023-04-24T07:44:18;8.80;99.90
18160;DHT22;9205;52.032;4.314;2023-04-24T07:46:47;8.70;99.90
18160;DHT22;9205;52.032;4.314;2023-04-24T07:49:14;8.90;99.90
18160;DHT22;9205;52.032;4.314;2023-04-24T07:51:41;8.90;99.90
18160;DHT22;9205;52.032;4.314;2023-04-24T07:54:09;8.90;99.90
18160;DHT22;9205;52.032;4.314;2023-04-24T07:56:36;8.80;99.90
18160;DHT22;9205;52.032;4.314;2023-04-24T07:59:04;8.80;99.90
18160;DHT22;9205;52.032;4.314;2023-04-24T08:01:31;8.70;99.90
18160;DHT22;9205;52.032;4.314;2023-04-24T08:04:00;8.80;99.90
18160;DHT22;9205;52.032;4.314;2023-04-24T08:06:27;8.80;99.90
18160;DHT22;9205;52.032;4.314;2023-04-24T08:08:56;8.80;99.90
18160;DHT22;9205;52.032;4.314;2023-04-24T08:11:23;8.80;99.90
18160;DHT22;9205;52.032;4.314;2023-04-24T08:13:51;8.80;99.90
18160;DHT22;9205;52.032;4.314;2023-04-24T08:16:18;8.90;99.90
18160;DHT22;9205;52.032;4.314;2023-04-24T08:18:45;8.90;99.90
18160;DHT22;9205;52.032;4.314;2023-04-24T08:21:14;9.00;79.80
18160;DHT22;9205;52.032;4.314;2023-04-24T08:23:42;9.00;53.80
18160;DHT22;9205;52.032;4.314;2023-04-24T08:26:10;8.90;46.50
18160;DHT22;9205;52.032;4.314;2023-04-24T08:28:37;8.80;24.40
18160;DHT22;9205;52.032;4.314;2023-04-24T08:31:05;8.90;48.00
18160;DHT22;9205;52.032;4.314;2023-04-24T08:33:32;8.70;37.40
18160;DHT22;9205;52.032;4.314;2023-04-24T08:36:01;8.70;21.30
18160;DHT22;9205;52.032;4.314;2023-04-24T08:38:30;8.70;14.00
18160;DHT22;9205;52.032;4.314;2023-04-24T08:40:59;8.70;9.70
18160;DHT22;9205;52.032;4.314;2023-04-24T08:43:27;8.80;8.00
18160;DHT22;9205;52.032;4.314;2023-04-24T08:45:56;8.80;1.00
18160;DHT22;9205;52.032;4.314;2023-04-24T08:48:25;8.90;1.00
18160;DHT22;9205;52.032;4.314;2023-04-24T08:50:53;8.80;1.00
18160;DHT22;9205;52.032;4.314;2023-04-24T08:53:21;8.80;14.80
18160;DHT22;9205;52.032;4.314;2023-04-24T08:55:51;8.80;58.50
18160;DHT22;9205;52.032;4.314;2023-04-24T08:58:24;8.70;67.30
18160;DHT22;9205;52.032;4.314;2023-04-24T09:00:54;8.60;91.10
18160;DHT22;9205;52.032;4.314;2023-04-24T09:03:22;8.80;99.80
18160;DHT22;9205;52.032;4.314;2023-04-24T09:05:51;8.70;90.60
18160;DHT22;9205;52.032;4.314;2023-04-24T09:08:20;8.80;73.00
18160;DHT22;9205;52.032;4.314;2023-04-24T09:10:52;8.90;50.50
18160;DHT22;9205;52.032;4.314;2023-04-24T09:13:20;9.10;24.90
18160;DHT22;9205;52.032;4.314;2023-04-24T09:15:47;9.20;27.60
18160;DHT22;9205;52.032;4.314;2023-04-24T09:18:15;9.30;27.50
18160;DHT22;9205;52.032;4.314;2023-04-24T09:20:58;9.30;41.70
18160;DHT22;9205;52.032;4.314;2023-04-24T09:23:27;9.40;20.70
18160;DHT22;9205;52.032;4.314;2023-04-24T09:25:57;9.30;13.50
18160;DHT22;9205;52.032;4.314;2023-04-24T09:28:26;9.50;32.90
18160;DHT22;9205;52.032;4.314;2023-04-24T09:31:04;9.50;17.60
18160;DHT22;9205;52.032;4.314;2023-04-24T09:33:33;9.50;10.60
18160;DHT22;9205;52.032;4.314;2023-04-24T09:36:00;9.60;5.80
18160;DHT22;9205;52.032;4.314;2023-04-24T09:38:32;9.60;8.30
18160;DHT22;9205;52.032;4.314;2023-04-24T09:41:03;9.70;18.10
18160;DHT22;9205;52.032;4.314;2023-04-24T09:43:32;9.60;1.00
18160;DHT22;9205;52.032;4.314;2023-04-24T09:46:07;9.70;1.00
18160;DHT22;9205;52.032;4.314;2023-04-24T09:48:36;9.60;1.00
18160;DHT22;9205;52.032;4.314;2023-04-24T09:51:05;9.60;1.00
18160;DHT22;9205;52.032;4.314;2023-04-24T09:53:36;9.60;1.00
18160;DHT22;9205;52.032;4.314;2023-04-24T09:56:10;9.50;1.00
18160;DHT22;9205;52.032;4.314;2023-04-24T09:58:38;9.60;1.00
18160;DHT22;9205;52.032;4.314;2023-04-24T10:01:05;9.70;1.00
18160;DHT22;9205;52.032;4.314;2023-04-24T10:03:33;9.90;1.00
18160;DHT22;9205;52.032;4.314;2023-04-24T10:06:01;9.70;1.00
18160;DHT22;9205;52.032;4.314;2023-04-24T10:08:34;9.50;1.00
18160;DHT22;9205;52.032;4.314;2023-04-24T10:11:02;9.40;1.00
18160;DHT22;9205;52.032;4.314;2023-04-24T10:13:32;9.50;1.00
18160;DHT22;9205;52.032;4.314;2023-04-24T10:16:00;9.50;1.00
18160;DHT22;9205;52.032;4.314;2023-04-24T10:18:30;9.40;1.00
18160;DHT22;9205;52.032;4.314;2023-04-24T10:21:00;9.50;1.00
18160;DHT22;9205;52.032;4.314;2023-04-24T10:23:28;9.40;1.00
18160;DHT22;9205;52.032;4.314;2023-04-24T10:25:57;9.40;13.60
18160;DHT22;9205;52.032;4.314;2023-04-24T10:28:26;9.50;40.10
18160;DHT22;9205;52.032;4.314;2023-04-24T10:30:57;9.40;19.60
18160;DHT22;9205;52.032;4.314;2023-04-24T10:33:26;9.40;1.30
18160;DHT22;9205;52.032;4.314;2023-04-24T10:35:53;9.50;1.00
18160;DHT22;9205;52.032;4.314;2023-04-24T10:38:24;10.00;1.00
18160;DHT22;9205;52.032;4.314;2023-04-24T10:40:57;10.40;1.00
18160;DHT22;9205;52.032;4.314;2023-04-24T10:43:35;10.50;1.00
18160;DHT22;9205;52.032;4.314;2023-04-24T10:46:05;10.30;1.00
18160;DHT22;9205;52.032;4.314;2023-04-24T10:48:33;10.10;1.00
18160;DHT22;9205;52.032;4.314;2023-04-24T10:51:01;9.70;1.00
18160;DHT22;9205;52.032;4.314;2023-04-24T10:53:30;9.70;1.00
18160;DHT22;9205;52.032;4.314;2023-04-24T10:55:58;9.80;1.00
18160;DHT22;9205;52.032;4.314;2023-04-24T10:58:36;10.00;1.00
18160;DHT22;9205;52.032;4.314;2023-04-24T11:01:07;10.00;1.00
18160;DHT22;9205;52.032;4.314;2023-04-24T11:03:35;10.30;1.00
18160;DHT22;9205;52.032;4.314;2023-04-24T11:06:04;11.10;1.00
18160;DHT22;9205;52.032;4.314;2023-04-24T11:08:38;11.40;1.00
18160;DHT22;9205;52.032;4.314;2023-04-24T11:11:10;10.90;1.00
18160;DHT22;9205;52.032;4.314;2023-04-24T11:14:04;11.00;1.00
18160;DHT22;9205;52.032;4.314;2023-04-24T11:16:35;11.00;1.00
18160;DHT22;9205;52.032;4.314;2023-04-24T11:19:07;10.90;99.90
18160;DHT22;9205;52.032;4.314;2023-04-24T11:21:43;11.10;1.00
18160;DHT22;9205;52.032;4.314;2023-04-24T11:24:24;11.20;1.00
18160;DHT22;9205;52.032;4.314;2023-04-24T11:26:54;10.80;99.90
18160;DHT22;9205;52.032;4.314;2023-04-24T11:29:23;10.80;99.90
18160;DHT22;9205;52.032;4.314;2023-04-24T11:32:16;10.90;99.90
18160;DHT22;9205;52.032;4.314;2023-04-24T11:34:47;10.80;99.90
18160;DHT22;9205;52.032;4.314;2023-04-24T11:37:14;10.80;99.90
18160;DHT22;9205;52.032;4.314;2023-04-24T11:39:42;10.90;99.90
18160;DHT22;9205;52.032;4.314;2023-04-24T11:42:10;11.00;1.00
18160;DHT22;9205;52.032;4.314;2023-04-24T11:44:37;11.00;1.00
18160;DHT22;9205;52.032;4.314;2023-04-24T11:47:05;10.90;99.90
18160;DHT22;9205;52.032;4.314;2023-04-24T11:49:36;10.80;99.90
18160;DHT22;9205;52.032;4.314;2023-04-24T11:52:04;10.60;99.90
18160;DHT22;9205;52.032;4.314;2023-04-24T11:54:31;10.80;99.90
18160;DHT22;9205;52.032;4.314;2023-04-24T11:56:59;11.00;99.90
18160;DHT22;9205;52.032;4.314;2023-04-24T11:59:26;10.90;99.90
18160;DHT22;9205;52.032;4.314;2023-04-24T12:01:53;10.50;99.90
18160;DHT22;9205;52.032;4.314;2023-04-24T12:04:20;10.40;1.00
18160;DHT22;9205;52.032;4.314;2023-04-24T12:07:01;9.90;1.00
18160;DHT22;9205;52.032;4.314;2023-04-24T12:09:39;9.60;1.00
18160;DHT22;9205;52.032;4.314;2023-04-24T12:12:07;9.40;1.00
18160;DHT22;9205;52.032;4.314;2023-04-24T12:14:42;9.60;1.00
18160;DHT22;9205;52.032;4.314;2023-04-24T12:17:10;9.90;19.40
18160;DHT22;9205;52.032;4.314;2023-04-24T12:19:38;10.00;99.90
18160;DHT22;9205;52.032;4.314;2023-04-24T12:22:13;10.20;52.60
18160;DHT22;9205;52.032;4.314;2023-04-24T12:25:00;10.50;75.80
18160;DHT22;9205;52.032;4.314;2023-04-24T12:27:40;11.00;73.60
18160;DHT22;9205;52.032;4.314;2023-04-24T12:30:12;10.70;1.00
18160;DHT22;9205;52.032;4.314;2023-04-24T12:32:42;10.50;1.00
18160;DHT22;9205;52.032;4.314;2023-04-24T12:35:10;10.70;1.00
18160;DHT22;9205;52.032;4.314;2023-04-24T12:37:41;11.00;1.00
18160;DHT22;9205;52.032;4.314;2023-04-24T12:40:10;10.90;1.00
18160;DHT22;9205;52.032;4.314;2023-04-24T12:42:43;11.10;1.00
18160;DHT22;9205;52.032;4.314;2023-04-24T12:45:11;11.00;1.00
18160;DHT22;9205;52.032;4.314;2023-04-24T12:47:40;10.90;1.00
18160;DHT22;9205;52.032;4.314;2023-04-24T12:50:09;10.70;1.00
18160;DHT22;9205;52.032;4.314;2023-04-24T12:52:39;10.30;1.00
18160;DHT22;9205;52.032;4.314;2023-04-24T12:55:07;10.40;1.00
18160;DHT22;9205;52.032;4.314;2023-04-24T12:57:37;10.40;1.00
18160;DHT22;9205;52.032;4.314;2023-04-24T13:00:07;10.20;1.00
18160;DHT22;9205;52.032;4.314;2023-04-24T13:02:35;10.10;1.00
18160;DHT22;9205;52.032;4.314;2023-04-24T13:05:06;10.00;1.00
18160;DHT22;9205;52.032;4.314;2023-04-24T13:07:33;9.60;1.00
18160;DHT22;9205;52.032;4.314;2023-04-24T13:10:02;10.10;1.00
18160;DHT22;9205;52.032;4.314;2023-04-24T13:12:30;10.70;1.00
18160;DHT22;9205;52.032;4.314;2023-04-24T13:14:57;10.90;1.00
18160;DHT22;9205;52.032;4.314;2023-04-24T13:17:25;10.70;1.00
18160;DHT22;9205;52.032;4.314;2023-04-24T13:19:54;11.20;1.00
18160;DHT22;9205;52.032;4.314;2023-04-24T13:22:22;11.30;1.00
18160;DHT22;9205;52.032;4.314;2023-04-24T13:24:49;10.90;1.00
18160;DHT22;9205;52.032;4.314;2023-04-24T13:27:18;10.60;1.00
18160;DHT22;9205;52.032;4.314;2023-04-24T13:29:45;10.60;1.00
18160;DHT22;9205;52.032;4.314;2023-04-24T13:32:13;10.50;99.90
18160;DHT22;9205;52.032;4.314;2023-04-24T13:34:40;10.70;99.90
18160;DHT22;9205;52.032;4.314;2023-04-24T13:37:07;10.80;1.00
18160;DHT22;9205;52.032;4.314;2023-04-24T13:39:35;11.20;1.00
18160;DHT22;9205;52.032;4.314;2023-04-24T13:42:03;11.50;1.00
18160;DHT22;9205;52.032;4.314;2023-04-24T13:44:32;11.90;1.00
18160;DHT22;9205;52.032;4.314;2023-04-24T13:46:59;11.70;1.00
18160;DHT22;9205;52.032;4.314;2023-04-24T13:49:27;11.90;22.80
18160;DHT22;9205;52.032;4.314;2023-04-24T13:51:55;12.00;97.90
18160;DHT22;9205;52.032;4.314;2023-04-24T13:54:23;11.40;1.00
18160;DHT22;9205;52.032;4.314;2023-04-24T13:56:51;11.20;1.00
18160;DHT22;9205;52.032;4.314;2023-04-24T13:59:19;11.00;1.00
18160;DHT22;9205;52.032;4.314;2023-04-24T14:01:49;10.80;99.90
18160;DHT22;9205;52.032;4.314;2023-04-24T14:04:16;10.40;99.90
18160;DHT22;9205;52.032;4.314;2023-04-24T14:06:43;10.00;1.00
18160;DHT22;9205;52.032;4.314;2023-04-24T14:09:11;9.90;1.00
18160;DHT22;9205;52.032;4.314;2023-04-24T14:11:38;10.00;1.00
18160;DHT22;9205;52.032;4.314;2023-04-24T14:14:06;10.00;99.90
18160;DHT22;9205;52.032;4.314;2023-04-24T14:16:33;10.20;77.30
18160;DHT22;9205;52.032;4.314;2023-04-24T14:19:02;10.50;99.90
18160;DHT22;9205;52.032;4.314;2023-04-24T14:21:30;10.70;1.00
18160;DHT22;9205;52.032;4.314;2023-04-24T14:23:57;10.70;1.00
18160;DHT22;9205;52.032;4.314;2023-04-24T14:26:25;10.80;1.00
18160;DHT22;9205;52.032;4.314;2023-04-24T14:28:52;10.80;1.00
18160;DHT22;9205;52.032;4.314;2023-04-24T14:31:20;10.90;1.00
18160;DHT22;9205;52.032;4.314;2023-04-24T14:33:47;10.50;1.00
18160;DHT22;9205;52.032;4.314;2023-04-24T14:36:16;10.40;1.00
18160;DHT22;9205;52.032;4.314;2023-04-24T14:38:43;10.50;1.00
18160;DHT22;9205;52.032;4.314;2023-04-24T14:41:10;10.30;1.00
18160;DHT22;9205;52.032;4.314;2023-04-24T14:43:38;10.20;1.00
18160;DHT22;9205;52.032;4.314;2023-04-24T14:46:05;10.30;1.00
18160;DHT22;9205;52.032;4.314;2023-04-24T14:48:33;10.40;1.00
18160;DHT22;9205;52.032;4.314;2023-04-24T14:51:00;10.30;99.90
18160;DHT22;9205;52.032;4.314;2023-04-24T14:53:29;10.20;99.90
18160;DHT22;9205;52.032;4.314;2023-04-24T14:55:56;10.00;1.00
18160;DHT22;9205;52.032;4.314;2023-04-24T14:58:23;10.40;71.20
18160;DHT22;9205;52.032;4.314;2023-04-24T15:00:50;10.60;99.90
18160;DHT22;9205;52.032;4.314;2023-04-24T15:03:20;10.70;99.90
18160;DHT22;9205;52.032;4.314;2023-04-24T15:05:47;10.60;99.90
18160;DHT22;9205;52.032;4.314;2023-04-24T15:08:14;10.50;99.90
18160;DHT22;9205;52.032;4.314;2023-04-24T15:10:43;10.30;99.90
18160;DHT22;9205;52.032;4.314;2023-04-24T15:13:11;10.00;1.00
18160;DHT22;9205;52.032;4.314;2023-04-24T15:15:38;10.00;1.00
18160;DHT22;9205;52.032;4.314;2023-04-24T15:18:05;10.30;30.50
18160;DHT22;9205;52.032;4.314;2023-04-24T15:20:34;10.70;1.00
18160;DHT22;9205;52.032;4.314;2023-04-24T15:23:01;10.40;99.90
18160;DHT22;9205;52.032;4.314;2023-04-24T15:25:28;10.50;99.90
18160;DHT22;9205;52.032;4.314;2023-04-24T15:27:57;10.80;99.90
18160;DHT22;9205;52.032;4.314;2023-04-24T15:30:25;11.00;1.00
18160;DHT22;9205;52.032;4.314;2023-04-24T15:32:53;10.80;1.00
18160;DHT22;9205;52.032;4.314;2023-04-24T15:35:20;10.50;1.00
18160;DHT22;9205;52.032;4.314;2023-04-24T15:37:47;10.20;1.00
18160;DHT22;9205;52.032;4.314;2023-04-24T15:40:14;10.10;1.00
18160;DHT22;9205;52.032;4.314;2023-04-24T15:42:42;9.90;1.00
18160;DHT22;9205;52.032;4.314;2023-04-24T15:45:11;10.00;99.90
18160;DHT22;9205;52.032;4.314;2023-04-24T15:47:39;10.10;99.90
18160;DHT22;9205;52.032;4.314;2023-04-24T15:50:07;10.00;99.90
18160;DHT22;9205;52.032;4.314;2023-04-24T15:52:36;9.80;1.00
18160;DHT22;9205;52.032;4.314;2023-04-24T15:55:04;9.90;1.00
18160;DHT22;9205;52.032;4.314;2023-04-24T15:57:32;10.00;29.60
18160;DHT22;9205;52.032;4.314;2023-04-24T15:59:59;10.10;13.10
18160;DHT22;9205;52.032;4.314;2023-04-24T16:02:38;9.90;1.00
18160;DHT22;9205;52.032;4.314;2023-04-24T16:05:06;9.90;1.00
18160;DHT22;9205;52.032;4.314;2023-04-24T16:07:34;10.00;1.00
18160;DHT22;9205;52.032;4.314;2023-04-24T16:10:01;10.30;42.00
18160;DHT22;9205;52.032;4.314;2023-04-24T16:12:29;10.30;1.00